createdAt,value
2019-01-18T00:04:14.143Z,2.58
2019-01-18T00:06:43.633Z,2.56
2019-01-18T00:09:12.977Z,2.56
2019-01-18T00:12:03.360Z,2.53
2019-01-18T00:18:09.880Z,2.55
2019-01-18T00:23:59.813Z,2.49
2019-01-18T00:26:42.759Z,2.47
2019-01-18T00:29:56.187Z,2.47
2019-01-18T00:38:16.936Z,2.37
2019-01-18T00:44:00.932Z,2.31
2019-01-18T00:47:10.563Z,2.24
2019-01-18T00:50:10.988Z,2.18
2019-01-18T00:52:40.382Z,2.12
2019-01-18T00:55:24.876Z,2.03
2019-01-18T00:58:26.958Z,1.96
2019-01-18T01:01:10.729Z,1.92
2019-01-18T01:03:40.555Z,1.89
2019-01-18T01:06:10.174Z,1.84
2019-01-18T01:08:39.786Z,1.82
2019-01-18T01:11:09.110Z,1.80
2019-01-18T01:13:40.062Z,1.78
2019-01-18T01:19:37.405Z,1.71
2019-01-18T01:22:07.558Z,1.66
2019-01-18T01:24:36.926Z,1.60
2019-01-18T01:27:06.318Z,1.57
2019-01-18T01:29:35.659Z,1.54
2019-01-18T01:32:36.065Z,1.52
2019-01-18T01:35:26.742Z,1.50
2019-01-18T01:41:04.146Z,1.38
2019-01-18T01:43:33.721Z,1.36
2019-01-18T01:46:24.936Z,1.36
2019-01-18T01:49:14.986Z,1.37
2019-01-18T01:52:04.442Z,1.38
2019-01-18T02:01:28.045Z,1.39
2019-01-18T02:04:05.921Z,1.41
2019-01-18T02:19:00.215Z,1.45
2019-01-18T02:21:29.566Z,1.47
2019-01-18T02:23:58.901Z,1.48
2019-01-18T02:26:30.940Z,1.52
2019-01-18T02:29:00.262Z,1.57
2019-01-18T02:31:29.601Z,1.60
2019-01-18T02:33:58.929Z,1.61
2019-01-18T02:36:28.271Z,1.60
2019-01-18T02:38:57.598Z,1.62
2019-01-18T02:41:26.939Z,1.65
2019-01-18T02:43:56.267Z,1.68
2019-01-18T02:46:25.838Z,1.69
2019-01-18T02:48:55.175Z,1.71
2019-01-18T02:51:24.506Z,1.69
2019-01-18T02:53:54.255Z,1.67
2019-01-18T02:56:23.594Z,1.60
2019-01-18T02:58:52.931Z,1.63
2019-01-18T03:01:23.880Z,1.62
2019-01-18T03:03:53.227Z,1.63
2019-01-18T03:06:22.573Z,1.62
2019-01-18T03:09:11.260Z,1.63
2019-01-18T03:14:19.583Z,1.62
2019-01-18T03:16:48.914Z,1.64
2019-01-18T03:19:18.316Z,1.67
2019-01-18T03:21:47.932Z,1.66
2019-01-18T03:24:17.515Z,1.61
2019-01-18T03:26:47.141Z,1.53
2019-01-18T03:29:16.478Z,1.52
2019-01-18T03:31:45.809Z,1.49
2019-01-18T03:34:15.149Z,1.45
2019-01-18T03:36:44.474Z,1.40
2019-01-18T03:39:13.816Z,1.36
2019-01-18T03:41:43.445Z,1.34
2019-01-18T03:44:12.789Z,1.33
2019-01-18T03:46:42.122Z,1.31
2019-01-18T03:49:30.844Z,1.29
2019-01-18T03:52:00.171Z,1.27
2019-01-18T03:54:29.576Z,1.20
2019-01-18T03:56:58.899Z,1.18
2019-01-18T03:59:28.476Z,1.19
2019-01-18T04:01:57.808Z,1.15
2019-01-18T04:04:46.582Z,1.13
2019-01-18T04:07:15.909Z,1.09
2019-01-18T04:09:45.242Z,1.06
2019-01-18T04:12:14.910Z,1.02
2019-01-18T04:14:44.330Z,0.99
2019-01-18T04:17:13.659Z,0.94
2019-01-18T04:19:44.611Z,0.95
2019-01-18T04:22:13.935Z,0.95
2019-01-18T04:24:43.296Z,0.96
2019-01-18T04:27:12.618Z,0.97
2019-01-18T04:29:41.960Z,0.97
2019-01-18T04:32:11.291Z,0.96
2019-01-18T04:35:00.007Z,0.91
2019-01-18T04:37:29.346Z,0.89
2019-01-18T04:39:58.669Z,0.83
2019-01-18T04:42:28.014Z,0.80
2019-01-18T04:44:57.335Z,0.79
2019-01-18T04:47:26.674Z,0.78
2019-01-18T04:49:55.999Z,0.77
2019-01-18T04:52:36.174Z,0.75
2019-01-18T04:58:39.472Z,0.74
2019-01-18T05:01:08.814Z,0.72
2019-01-18T05:03:38.149Z,0.71
2019-01-18T05:07:41.910Z,0.73
2019-01-18T05:10:51.584Z,0.66
2019-01-18T05:13:20.904Z,0.63
2019-01-18T05:15:50.578Z,0.57
2019-01-18T05:18:20.441Z,0.54
2019-01-18T05:20:49.857Z,0.50
2019-01-18T05:23:19.180Z,0.46
2019-01-18T05:25:49.141Z,0.42
2019-01-18T05:28:19.035Z,0.36
2019-01-18T05:30:48.366Z,0.34
2019-01-18T05:33:18.015Z,0.34
2019-01-18T05:35:47.347Z,0.34
2019-01-18T05:38:16.993Z,0.34
2019-01-18T05:43:46.513Z,0.26
2019-01-18T05:46:15.851Z,0.26
2019-01-18T05:48:45.202Z,0.29
2019-01-18T05:51:15.421Z,0.27
2019-01-18T05:53:45.151Z,0.27
2019-01-18T05:56:14.784Z,0.30
2019-01-18T05:58:44.168Z,0.31
2019-01-18T06:01:13.828Z,0.33
2019-01-18T06:03:43.178Z,0.34
2019-01-18T06:06:13.155Z,0.33
2019-01-18T06:08:42.733Z,0.33
2019-01-18T06:11:12.600Z,0.33
2019-01-18T06:13:41.988Z,0.35
2019-01-18T06:16:11.332Z,0.37
2019-01-18T06:18:40.909Z,0.39
2019-01-18T06:21:12.166Z,0.42
2019-01-18T06:23:41.583Z,0.44
2019-01-18T06:26:11.653Z,0.45
2019-01-18T06:28:41.254Z,0.44
2019-01-18T06:31:11.536Z,0.42
2019-01-18T06:33:41.015Z,0.43
2019-01-18T06:36:11.306Z,0.41
2019-01-18T06:38:40.652Z,0.38
2019-01-18T06:44:07.134Z,0.35
2019-01-18T06:46:36.480Z,0.34
2019-01-18T06:51:56.031Z,0.32
2019-01-18T06:54:25.370Z,0.34
2019-01-18T06:56:54.717Z,0.33
2019-01-18T06:59:24.385Z,0.34
2019-01-18T07:01:54.049Z,0.34
2019-01-18T07:04:40.800Z,0.35
2019-01-18T07:07:06.263Z,0.34
2019-01-18T07:09:35.883Z,0.24
2019-01-18T07:12:07.132Z,0.33
2019-01-18T07:14:36.460Z,0.33
2019-01-18T07:17:06.469Z,0.33
2019-01-18T07:19:36.111Z,0.31
2019-01-18T07:22:05.446Z,0.31
2019-01-18T07:24:35.067Z,0.30
2019-01-18T07:27:04.477Z,0.29
2019-01-18T07:29:53.717Z,0.26
2019-01-18T07:32:23.638Z,0.26
2019-01-18T07:34:54.593Z,0.24
2019-01-18T07:37:24.492Z,0.22
2019-01-18T07:39:54.121Z,0.19
2019-01-18T07:42:23.763Z,0.18
2019-01-18T07:44:53.259Z,0.17
2019-01-18T07:47:22.743Z,0.16
2019-01-18T07:49:52.245Z,0.14
2019-01-18T07:52:21.594Z,0.15
2019-01-18T07:54:51.148Z,0.15
2019-01-18T07:57:41.702Z,0.18
2019-01-18T08:00:32.549Z,0.19
2019-01-18T08:03:02.200Z,0.21
2019-01-18T08:05:31.543Z,0.27
2019-01-18T08:08:03.021Z,0.32
2019-01-18T08:10:51.634Z,0.35
2019-01-18T08:13:21.890Z,0.36
2019-01-18T08:15:51.387Z,0.38
2019-01-18T08:18:20.858Z,0.38
2019-01-18T08:20:50.378Z,0.41
2019-01-18T08:23:40.473Z,0.46
2019-01-18T08:26:11.179Z,0.50
2019-01-18T08:28:40.840Z,0.55
2019-01-18T08:31:11.606Z,0.64
2019-01-18T08:33:41.508Z,0.79
2019-01-18T08:36:12.020Z,1.32
2019-01-18T08:38:41.364Z,2.02
2019-01-18T08:41:11.947Z,2.66
2019-01-18T08:43:41.671Z,3.23
2019-01-18T08:46:31.004Z,3.65
2019-01-18T08:49:01.251Z,3.85
2019-01-18T08:51:50.579Z,4.04
2019-01-18T08:54:19.971Z,4.19
2019-01-18T08:56:49.409Z,4.32
2019-01-18T08:59:19.572Z,4.49
2019-01-18T09:01:48.896Z,4.58
2019-01-18T09:04:18.879Z,4.60
2019-01-18T09:07:07.483Z,4.53
2019-01-18T09:09:37.061Z,4.45
2019-01-18T09:12:06.439Z,4.54
2019-01-18T09:14:35.852Z,4.86
2019-01-18T09:17:05.578Z,5.09
2019-01-18T09:19:34.919Z,5.19
2019-01-18T09:22:23.903Z,5.41
2019-01-18T09:25:05.776Z,5.42
2019-01-18T09:27:35.413Z,5.42
2019-01-18T09:33:26.502Z,5.25
2019-01-18T09:35:55.836Z,5.29
2019-01-18T09:41:39.853Z,5.44
2019-01-18T09:44:10.250Z,5.82
2019-01-18T09:46:39.611Z,6.39
2019-01-18T09:49:08.955Z,6.39
2019-01-18T09:51:57.829Z,6.65
2019-01-18T09:54:27.461Z,6.65
2019-01-18T09:56:56.790Z,6.80
2019-01-18T09:59:26.148Z,6.88
2019-01-18T10:01:55.641Z,7.10
2019-01-18T10:04:24.979Z,7.10
2019-01-18T10:06:54.534Z,7.31
2019-01-18T10:09:23.876Z,7.58
2019-01-18T10:11:53.788Z,7.80
2019-01-18T10:14:23.772Z,8.05
2019-01-18T10:16:53.121Z,8.13
2019-01-18T10:19:22.757Z,8.13
2019-01-18T10:21:52.380Z,8.24
2019-01-18T10:24:27.873Z,8.44
2019-01-18T10:26:57.496Z,8.47
2019-01-18T10:29:28.283Z,8.38
2019-01-18T10:32:03.652Z,8.19
2019-01-18T10:34:32.998Z,8.23
2019-01-18T10:37:02.551Z,8.37
2019-01-18T10:39:31.892Z,8.58
2019-01-18T10:42:01.557Z,8.76
2019-01-18T10:44:30.897Z,9.00
2019-01-18T10:47:00.278Z,9.22
2019-01-18T10:49:30.211Z,8.87
2019-01-18T10:51:59.659Z,8.60
2019-01-18T10:54:28.999Z,8.56
2019-01-18T10:56:58.586Z,8.50
2019-01-18T11:02:17.171Z,8.34
2019-01-18T11:04:59.704Z,7.90
2019-01-18T11:07:28.946Z,7.90
2019-01-18T11:09:58.620Z,7.34
2019-01-18T11:12:28.227Z,6.89
2019-01-18T11:14:57.667Z,6.82
2019-01-18T11:17:27.314Z,6.82
2019-01-18T11:26:01.044Z,7.78
2019-01-18T11:28:30.676Z,8.23
2019-01-18T11:31:00.012Z,8.54
2019-01-18T11:33:29.637Z,8.78
2019-01-18T11:38:53.738Z,9.01
2019-01-18T11:41:23.327Z,8.74
2019-01-18T11:43:52.864Z,8.27
2019-01-18T11:46:24.056Z,7.99
2019-01-18T11:48:53.674Z,8.02
2019-01-18T11:51:23.304Z,8.17
2019-01-18T11:53:52.879Z,8.08
2019-01-18T11:56:22.214Z,8.07
2019-01-18T11:58:52.000Z,8.12
2019-01-18T12:01:21.335Z,8.17
2019-01-18T12:03:51.017Z,8.21
2019-01-18T12:07:00.391Z,8.19
2019-01-18T12:09:29.970Z,8.09
2019-01-18T12:11:59.317Z,8.02
2019-01-18T12:14:28.879Z,8.03
2019-01-18T12:16:58.231Z,8.07
2019-01-18T12:19:27.851Z,8.32
2019-01-18T12:21:57.449Z,8.83
2019-01-18T12:24:46.173Z,8.91
2019-01-18T12:27:16.154Z,8.72
2019-01-18T12:29:45.476Z,8.78
2019-01-18T12:32:15.493Z,8.99
2019-01-18T12:34:44.928Z,8.80
2019-01-18T12:37:14.278Z,8.49
2019-01-18T12:39:43.850Z,8.40
2019-01-18T12:42:13.493Z,8.48
2019-01-18T12:44:42.994Z,8.41
2019-01-18T12:47:31.757Z,8.26
2019-01-18T12:50:01.079Z,8.23
2019-01-18T12:52:31.525Z,8.30
2019-01-18T12:55:00.851Z,8.35
2019-01-18T12:57:30.188Z,8.24
2019-01-18T12:59:59.516Z,8.06
2019-01-18T13:02:35.190Z,7.92
2019-01-18T13:08:59.707Z,7.38
2019-01-18T13:11:29.092Z,7.38
2019-01-18T13:13:58.421Z,7.07
2019-01-18T13:16:28.059Z,6.83
2019-01-18T13:18:57.382Z,6.64
2019-01-18T13:21:27.024Z,6.68
2019-01-18T13:23:56.353Z,6.81
2019-01-18T13:26:25.986Z,6.87
2019-01-18T13:28:55.309Z,6.86
2019-01-18T13:31:25.546Z,6.81
2019-01-18T13:34:14.662Z,6.88
2019-01-18T13:36:56.756Z,6.88
2019-01-18T13:39:26.630Z,6.88
2019-01-18T13:41:55.991Z,6.84
2019-01-18T13:44:25.315Z,6.72
2019-01-18T13:46:56.271Z,6.73
2019-01-18T13:49:26.185Z,6.78
2019-01-18T13:51:55.554Z,6.73
2019-01-18T13:54:25.172Z,6.69
2019-01-18T13:56:54.808Z,6.49
2019-01-18T13:59:24.285Z,6.27
2019-01-18T14:01:53.902Z,6.20
2019-01-18T14:04:23.844Z,6.20
2019-01-18T14:07:12.813Z,6.27
2019-01-18T14:09:42.202Z,6.27
2019-01-18T14:12:12.564Z,6.34
2019-01-18T14:14:55.185Z,6.56
2019-01-18T14:17:24.530Z,6.56
2019-01-18T14:20:06.546Z,6.49
2019-01-18T14:22:36.114Z,6.49
2019-01-18T14:28:25.836Z,6.20
2019-01-18T14:30:55.510Z,6.06
2019-01-18T14:33:25.148Z,6.01
2019-01-18T14:35:54.477Z,5.94
2019-01-18T14:38:25.236Z,5.92
2019-01-18T14:41:54.541Z,5.88
2019-01-18T14:44:24.476Z,5.90
2019-01-18T14:46:54.167Z,5.80
2019-01-18T14:49:23.787Z,5.77
2019-01-18T14:51:53.470Z,5.71
2019-01-18T14:54:22.795Z,5.66
2019-01-18T14:57:11.797Z,5.68
2019-01-18T14:59:41.371Z,5.77
2019-01-18T15:02:10.701Z,5.95
2019-01-18T15:11:30.892Z,6.69
2019-01-18T15:14:19.731Z,6.89
2019-01-18T15:16:49.595Z,6.89
2019-01-18T15:19:18.945Z,6.74
2019-01-18T15:21:48.540Z,6.58
2019-01-18T15:24:17.882Z,6.58
2019-01-18T15:26:47.468Z,6.43
2019-01-18T15:29:16.814Z,6.30
2019-01-18T15:31:46.408Z,6.21
2019-01-18T15:34:16.045Z,6.17
2019-01-18T15:36:45.772Z,6.18
2019-01-18T15:39:22.547Z,6.12
2019-01-18T15:41:51.887Z,6.10
2019-01-18T15:44:23.155Z,6.09
2019-01-18T15:46:52.522Z,6.04
2019-01-18T15:49:22.171Z,5.93
2019-01-18T15:51:53.715Z,5.87
2019-01-18T15:54:23.067Z,5.85
2019-01-18T15:56:52.495Z,5.77
2019-01-18T15:59:21.950Z,5.74
2019-01-18T16:01:51.524Z,5.69
2019-01-18T16:04:20.864Z,5.62
2019-01-18T16:06:50.432Z,5.55
2019-01-18T16:09:19.860Z,5.49
2019-01-18T16:11:50.286Z,5.43
2019-01-18T16:14:19.784Z,5.33
2019-01-18T16:16:49.800Z,5.30
2019-01-18T16:19:19.140Z,5.18
2019-01-18T16:21:48.675Z,5.16
2019-01-18T16:24:18.029Z,5.18
2019-01-18T16:26:48.964Z,5.20
2019-01-18T16:29:18.792Z,5.17
2019-01-18T16:31:48.416Z,5.06
2019-01-18T16:34:18.296Z,4.95
2019-01-18T16:36:47.697Z,4.86
2019-01-18T16:39:17.051Z,4.81
2019-01-18T16:41:46.582Z,4.76
2019-01-18T16:44:15.914Z,4.72
2019-01-18T16:46:45.547Z,4.68
2019-01-18T16:49:14.881Z,4.61
2019-01-18T16:51:44.220Z,4.55
2019-01-18T16:54:13.840Z,4.49
2019-01-18T16:56:43.432Z,4.46
2019-01-18T16:59:12.958Z,4.49
2019-01-18T17:01:42.599Z,4.48
2019-01-18T17:04:22.936Z,4.50
2019-01-18T17:06:52.276Z,4.50
2019-01-18T17:09:22.154Z,4.49
2019-01-18T17:11:51.670Z,4.47
2019-01-18T17:14:22.684Z,4.46
2019-01-18T17:16:52.025Z,4.46
2019-01-18T17:19:21.643Z,4.45
2019-01-18T17:21:50.988Z,4.40
2019-01-18T17:24:20.606Z,4.37
2019-01-18T17:26:49.961Z,4.27
2019-01-18T17:29:19.932Z,4.32
2019-01-18T17:31:49.586Z,4.28
2019-01-18T17:34:18.914Z,4.23
2019-01-18T17:36:48.389Z,4.15
2019-01-18T17:46:21.885Z,4.00
2019-01-18T17:49:34.664Z,4.00
2019-01-18T17:55:45.117Z,4.01
2019-01-18T17:58:54.986Z,3.97
2019-01-18T18:02:03.050Z,3.97
2019-01-18T18:05:12.703Z,4.00
2019-01-18T18:14:25.132Z,4.05
2019-01-18T18:17:33.540Z,4.03
2019-01-18T18:20:41.581Z,3.98
2019-01-18T18:23:49.702Z,3.95
2019-01-18T18:26:57.760Z,3.90
2019-01-18T18:33:08.327Z,3.74
2019-01-18T18:39:18.628Z,3.68
2019-01-18T18:45:45.808Z,3.52
2019-01-18T18:48:55.196Z,3.75
2019-01-18T19:04:12.712Z,4.09
2019-01-18T19:07:13.274Z,3.91
2019-01-18T19:10:21.816Z,3.76
2019-01-18T19:13:31.260Z,3.61
2019-01-18T19:16:39.580Z,3.44
2019-01-18T19:19:49.031Z,3.21
2019-01-18T19:28:54.145Z,2.99
2019-01-18T19:35:36.631Z,2.95
2019-01-18T19:38:44.705Z,2.96
2019-01-18T19:51:17.682Z,2.85
2019-01-18T19:54:27.130Z,2.82
2019-01-18T20:01:09.739Z,2.79
2019-01-18T20:04:19.126Z,2.77
2019-01-18T20:07:27.179Z,2.72
2019-01-18T20:17:06.340Z,2.57
2019-01-18T20:23:17.058Z,2.42
2019-01-18T20:26:26.522Z,2.34
2019-01-18T20:29:34.930Z,2.27
2019-01-18T20:35:44.861Z,2.19
2019-01-18T20:38:53.075Z,2.15
2019-01-18T20:42:01.454Z,2.13
2019-01-18T20:51:13.884Z,2.07
2019-01-18T20:54:22.010Z,2.09
2019-01-18T20:57:30.068Z,2.08
2019-01-18T21:00:39.543Z,2.08
2019-01-18T21:03:47.953Z,2.04
2019-01-18T21:06:56.031Z,2.03
2019-01-18T21:10:06.019Z,1.99
2019-01-18T21:13:14.089Z,1.92
2019-01-18T21:19:24.781Z,1.75
2019-01-18T21:22:32.961Z,1.67
2019-01-18T21:25:41.021Z,1.58
2019-01-18T21:28:49.327Z,1.51
2019-01-18T21:31:58.787Z,1.47
2019-01-18T21:35:06.876Z,1.44
2019-01-18T21:38:15.028Z,1.43
2019-01-18T21:41:23.104Z,1.43
2019-01-18T21:44:31.115Z,1.42
2019-01-18T21:47:40.569Z,1.42
2019-01-18T21:53:44.204Z,1.41
2019-01-18T21:59:54.418Z,1.43
2019-01-18T22:03:02.503Z,1.43
2019-01-18T22:06:11.162Z,1.41
2019-01-18T22:09:19.213Z,1.36
2019-01-18T22:12:27.287Z,1.31
2019-01-18T22:28:03.466Z,1.20
2019-01-18T22:31:12.843Z,1.19
2019-01-18T22:37:24.623Z,1.16
2019-01-18T22:40:33.038Z,1.12
2019-01-18T22:46:35.640Z,1.09
2019-01-18T22:49:43.999Z,1.06
2019-01-18T22:52:52.511Z,0.93
2019-01-18T22:56:00.559Z,0.93
2019-01-18T22:59:10.303Z,0.88
2019-01-18T23:05:39.001Z,0.73
2019-01-18T23:08:47.114Z,0.67
2019-01-18T23:11:56.757Z,0.68
2019-01-18T23:15:05.072Z,0.67
2019-01-18T23:18:13.481Z,0.60
2019-01-18T23:21:13.904Z,0.54
2019-01-18T23:24:24.956Z,0.48
2019-01-18T23:27:33.184Z,0.44
2019-01-18T23:33:43.217Z,0.37
2019-01-18T23:36:53.919Z,0.35
2019-01-18T23:43:04.552Z,0.30
2019-01-18T23:46:12.885Z,0.27
2019-01-18T23:49:21.187Z,0.23
2019-01-18T23:52:30.787Z,0.18
2019-01-18T23:55:39.158Z,0.15
2019-01-18T23:58:47.310Z,0.12
